sensor_id;sensor_type;location;lat;lon;timestamp;pressure;altitude;pressure_sealevel;temperature;humidity
46598;BME280;32318;48.858;8.252;2023-04-01T00:05:31;98935.78;;;9.68;76.12
46598;BME280;32318;48.858;8.252;2023-04-01T00:13:31;98947.31;;;9.76;76.40
46598;BME280;32318;48.858;8.252;2023-04-01T00:21:32;98939.34;;;9.76;76.56
46598;BME280;32318;48.858;8.252;2023-04-01T00:29:33;98928.00;;;9.67;77.54
46598;BME280;32318;48.858;8.252;2023-04-01T00:37:36;98932.03;;;9.63;77.03
46598;BME280;32318;48.858;8.252;2023-04-01T00:45:39;98931.44;;;9.61;77.01
46598;BME280;32318;48.858;8.252;2023-04-01T00:53:45;98934.47;;;9.57;76.82
46598;BME280;32318;48.858;8.252;2023-04-01T01:01:46;98932.59;;;9.58;77.17
46598;BME280;32318;48.858;8.252;2023-04-01T01:09:58;98936.13;;;9.58;76.60
46598;BME280;32318;48.858;8.252;2023-04-01T01:18:17;98924.56;;;9.51;76.94
46598;BME280;32318;48.858;8.252;2023-04-01T01:26:26;98919.59;;;9.48;76.44
46598;BME280;32318;48.858;8.252;2023-04-01T01:34:55;98908.06;;;9.41;76.30
46598;BME280;32318;48.858;8.252;2023-04-01T01:43:03;98911.66;;;9.33;74.95
46598;BME280;32318;48.858;8.252;2023-04-01T01:51:06;98903.66;;;9.33;74.69
46598;BME280;32318;48.858;8.252;2023-04-01T01:59:08;98896.53;;;9.34;74.30
46598;BME280;32318;48.858;8.252;2023-04-01T02:07:16;98900.56;;;9.30;74.15
46598;BME280;32318;48.858;8.252;2023-04-01T02:15:20;98888.00;;;9.23;74.48
46598;BME280;32318;48.858;8.252;2023-04-01T02:23:21;98899.69;;;9.22;74.47
46598;BME280;32318;48.858;8.252;2023-04-01T02:31:23;98891.13;;;9.27;74.19
46598;BME280;32318;48.858;8.252;2023-04-01T02:39:23;98903.34;;;9.21;74.07
46598;BME280;32318;48.858;8.252;2023-04-01T02:47:25;98904.75;;;9.17;74.79
46598;BME280;32318;48.858;8.252;2023-04-01T02:55:26;98893.00;;;9.12;74.87
46598;BME280;32318;48.858;8.252;2023-04-01T03:03:26;98892.81;;;9.13;74.29
46598;BME280;32318;48.858;8.252;2023-04-01T03:11:26;98897.97;;;9.15;73.83
46598;BME280;32318;48.858;8.252;2023-04-01T03:19:26;98898.41;;;9.18;73.88
46598;BME280;32318;48.858;8.252;2023-04-01T03:27:27;98888.94;;;9.16;73.88
46598;BME280;32318;48.858;8.252;2023-04-01T03:35:27;98895.75;;;9.18;73.38
46598;BME280;32318;48.858;8.252;2023-04-01T03:43:27;98886.56;;;9.21;73.21
46598;BME280;32318;48.858;8.252;2023-04-01T03:51:28;98895.00;;;9.24;73.12
46598;BME280;32318;48.858;8.252;2023-04-01T03:59:28;98890.34;;;9.33;73.30
46598;BME280;32318;48.858;8.252;2023-04-01T04:07:28;98884.00;;;9.34;73.31
46598;BME280;32318;48.858;8.252;2023-04-01T04:15:29;98866.66;;;9.38;73.37
46598;BME280;32318;48.858;8.252;2023-04-01T04:23:29;98886.38;;;9.44;72.80
46598;BME280;32318;48.858;8.252;2023-04-01T04:31:30;98877.19;;;9.47;72.91
46598;BME280;32318;48.858;8.252;2023-04-01T04:39:30;98871.22;;;9.45;72.52
46598;BME280;32318;48.858;8.252;2023-04-01T04:47:31;98866.09;;;9.43;72.36
46598;BME280;32318;48.858;8.252;2023-04-01T04:55:31;98860.94;;;9.41;72.17
46598;BME280;32318;48.858;8.252;2023-04-01T05:03:31;98850.22;;;9.35;71.96
46598;BME280;32318;48.858;8.252;2023-04-01T05:11:31;98851.88;;;9.36;71.35
46598;BME280;32318;48.858;8.252;2023-04-01T05:19:32;98850.22;;;9.35;71.68
46598;BME280;32318;48.858;8.252;2023-04-01T05:27:32;98847.94;;;9.32;71.78
46598;BME280;32318;48.858;8.252;2023-04-01T05:35:33;98865.94;;;9.30;73.15
46598;BME280;32318;48.858;8.252;2023-04-01T05:43:36;98856.19;;;9.15;75.36
46598;BME280;32318;48.858;8.252;2023-04-01T05:51:36;98853.75;;;8.99;77.69
46598;BME280;32318;48.858;8.252;2023-04-01T05:59:37;98838.91;;;8.89;77.57
46598;BME280;32318;48.858;8.252;2023-04-01T06:07:37;98848.16;;;8.93;77.59
46598;BME280;32318;48.858;8.252;2023-04-01T06:16:04;98853.66;;;8.92;78.42
46598;BME280;32318;48.858;8.252;2023-04-01T06:24:22;98850.56;;;8.88;78.78
46598;BME280;32318;48.858;8.252;2023-04-01T06:32:40;98863.34;;;8.78;80.64
46598;BME280;32318;48.858;8.252;2023-04-01T06:49:02;98876.19;;;8.74;82.48
46598;BME280;32318;48.858;8.252;2023-04-01T07:05:32;98874.84;;;9.00;81.52
46598;BME280;32318;48.858;8.252;2023-04-01T07:14:15;98879.63;;;9.05;82.98
46598;BME280;32318;48.858;8.252;2023-04-01T07:22:29;98894.50;;;8.99;83.21
46598;BME280;32318;48.858;8.252;2023-04-01T07:31:06;98901.56;;;9.07;83.45
46598;BME280;32318;48.858;8.252;2023-04-01T07:47:45;98923.25;;;8.89;83.51
46598;BME280;32318;48.858;8.252;2023-04-01T07:56:10;98913.63;;;8.88;84.49
46598;BME280;32318;48.858;8.252;2023-04-01T08:21:20;98917.19;;;9.32;84.77
46598;BME280;32318;48.858;8.252;2023-04-01T08:29:25;98928.16;;;9.44;84.05
46598;BME280;32318;48.858;8.252;2023-04-01T08:37:32;98936.34;;;9.42;84.77
46598;BME280;32318;48.858;8.252;2023-04-01T08:45:52;98939.03;;;9.42;85.22
46598;BME280;32318;48.858;8.252;2023-04-01T09:27:43;98963.53;;;9.52;85.58
46598;BME280;32318;48.858;8.252;2023-04-01T09:35:49;98957.50;;;9.65;85.39
46598;BME280;32318;48.858;8.252;2023-04-01T09:44:02;98958.63;;;9.78;85.15
46598;BME280;32318;48.858;8.252;2023-04-01T15:41:03;99138.28;;;9.98;86.93
46598;BME280;32318;48.858;8.252;2023-04-01T15:49:12;99144.38;;;9.92;87.67
46598;BME280;32318;48.858;8.252;2023-04-01T16:22:30;99130.38;;;10.05;87.85
46598;BME280;32318;48.858;8.252;2023-04-01T16:30:42;99142.78;;;9.98;87.31
46598;BME280;32318;48.858;8.252;2023-04-01T16:47:11;99195.06;;;9.77;86.99
46598;BME280;32318;48.858;8.252;2023-04-01T16:55:17;99211.22;;;9.61;88.46
46598;BME280;32318;48.858;8.252;2023-04-01T17:03:36;99195.78;;;9.41;87.93
46598;BME280;32318;48.858;8.252;2023-04-01T17:53:31;99258.28;;;9.15;87.88
46598;BME280;32318;48.858;8.252;2023-04-01T18:01:45;99259.53;;;9.04;87.76
46598;BME280;32318;48.858;8.252;2023-04-01T18:18:30;99279.75;;;8.90;87.72
46598;BME280;32318;48.858;8.252;2023-04-01T18:26:35;99273.50;;;8.83;87.78
46598;BME280;32318;48.858;8.252;2023-04-01T18:34:50;99276.16;;;8.83;87.84
46598;BME280;32318;48.858;8.252;2023-04-01T18:43:01;99278.81;;;8.83;87.95
46598;BME280;32318;48.858;8.252;2023-04-01T18:51:49;99285.59;;;8.86;87.52
46598;BME280;32318;48.858;8.252;2023-04-01T19:00:04;99293.59;;;8.86;87.04
46598;BME280;32318;48.858;8.252;2023-04-01T19:25:30;99315.97;;;9.00;86.90
46598;BME280;32318;48.858;8.252;2023-04-01T19:34:06;99323.78;;;9.01;87.14
46598;BME280;32318;48.858;8.252;2023-04-01T19:50:27;99332.28;;;8.97;86.88
46598;BME280;32318;48.858;8.252;2023-04-01T20:07:00;99355.97;;;8.91;86.66
46598;BME280;32318;48.858;8.252;2023-04-01T20:23:38;99378.97;;;8.76;87.60
46598;BME280;32318;48.858;8.252;2023-04-01T20:31:41;99384.66;;;8.73;86.92
46598;BME280;32318;48.858;8.252;2023-04-01T20:56:37;99409.13;;;8.68;87.42
46598;BME280;32318;48.858;8.252;2023-04-01T21:13:24;99419.91;;;8.75;85.49
46598;BME280;32318;48.858;8.252;2023-04-01T22:03:35;99442.03;;;8.75;83.77
46598;BME280;32318;48.858;8.252;2023-04-01T22:28:10;99463.31;;;8.75;83.63
46598;BME280;32318;48.858;8.252;2023-04-01T23:01:25;99488.09;;;8.68;83.12
46598;BME280;32318;48.858;8.252;2023-04-01T23:09:37;99493.78;;;8.65;82.72
46598;BME280;32318;48.858;8.252;2023-04-01T23:34:21;99519.91;;;8.44;84.61
46598;BME280;32318;48.858;8.252;2023-04-01T23:42:25;99529.03;;;8.42;84.37
46598;BME280;32318;48.858;8.252;2023-04-01T23:50:27;99538.34;;;8.46;84.00
